M/T Pazar — TCMC — position and weather

sailwx.info

Track history (hours):
 
Tides and Currents Weather Stations Pressure Air Temp Water Temp Dewpoint Dewpoint Depression Visibility Wind Speed Wind Dir Waves Ship Positions

M/T Pazar

Last reported at 2017-Feb-26 16:31 UTC. Time now 2017-Feb-26 16:45 UTC.
Position N 35°54' W 005°19'.

Length 85 m; draft 5.2 m.

Type: Tanker. MMSI: 271000251.

Date/timePositionNaut miles runAvg speedWind from/ knotsBaromVisibWave heightAir tempDewpointWater temp
2017-Feb-26 16:31N 35°54' W 005°19'0 0.0
2017-Feb-26 15:31N 35°54' W 005°19'0 0.0
2017-Feb-26 14:31N 35°54' W 005°19'0 0.0
2017-Feb-26 13:33N 35°54' W 005°19'2 1.8
2017-Feb-26 12:33N 35°55' W 005°20'1010.0
2017-Feb-26 11:33N 35°55' W 005°33'10 8.9
2017-Feb-26 10:28N 35°53' W 005°44'  
2017-Feb-21 22:31N 37°44' W 009°19'1010.8
2017-Feb-21 21:33N 37°53' W 009°13'1110.9
2017-Feb-21 20:33N 38°03' W 009°08'1110.9
2017-Feb-21 19:33N 38°14' W 009°04'1110.8
2017-Feb-21 18:34N 38°24' W 009°00'9 9.0
2017-Feb-21 17:31N 38°30' W 008°52'0 0.0
2017-Feb-20 09:21N 38°31' W 008°51'1 1.6
2017-Feb-20 08:29N 38°31' W 008°53'0 0.1
2017-Feb-20 03:30N 38°31' W 008°53'0 0.0
2017-Feb-20 02:30N 38°31' W 008°53'0 0.0
2017-Feb-20 01:30N 38°31' W 008°54'0 0.0
2017-Feb-20 00:24N 38°31' W 008°54'0 0.0
2017-Feb-19 23:30N 38°31' W 008°54'0 0.0
2017-Feb-19 22:33N 38°31' W 008°53'0 0.0
2017-Feb-19 21:33N 38°31' W 008°53'1 0.6
2017-Feb-19 20:33N 38°31' W 008°54'8 8.6
2017-Feb-19 19:33N 38°24' W 009°01'10 9.5
2017-Feb-19 18:33N 38°15' W 009°05'9 9.4
2017-Feb-19 17:33N 38°06' W 009°07'9 9.0
2017-Feb-19 16:33N 37°57' W 009°10'9 9.0
2017-Feb-19 15:33N 37°48' W 009°13'9 8.8
2017-Feb-19 14:33N 37°40' W 009°15'  
Track history (hours):
 
Tides and Currents Weather Stations Pressure Air Temp Water Temp Dewpoint Dewpoint Depression Visibility Wind Speed Wind Dir Waves Ship Positions

M/T Pazar

Last reported at 2017-Feb-26 16:31 UTC. Time now 2017-Feb-26 16:45 UTC.
Position N 35°54' W 005°19'.

Length 85 m; draft 5.2 m.

Type: Tanker. MMSI: 271000251.

Date/timePositionNaut miles runAvg speedWind from/ knotsBaromVisibWave heightAir tempDewpointWater temp
2017-Feb-26 16:31N 35°54' W 005°19'0 0.0
2017-Feb-26 15:31N 35°54' W 005°19'0 0.0
2017-Feb-26 14:31N 35°54' W 005°19'0 0.0
2017-Feb-26 13:33N 35°54' W 005°19'2 1.8
2017-Feb-26 12:33N 35°55' W 005°20'1010.0
2017-Feb-26 11:33N 35°55' W 005°33'10 8.9
2017-Feb-26 10:28N 35°53' W 005°44'  
2017-Feb-21 22:31N 37°44' W 009°19'1010.8
2017-Feb-21 21:33N 37°53' W 009°13'1110.9
2017-Feb-21 20:33N 38°03' W 009°08'1110.9
2017-Feb-21 19:33N 38°14' W 009°04'1110.8
2017-Feb-21 18:34N 38°24' W 009°00'9 9.0
2017-Feb-21 17:31N 38°30' W 008°52'0 0.0
2017-Feb-20 09:21N 38°31' W 008°51'1 1.6
2017-Feb-20 08:29N 38°31' W 008°53'0 0.1
2017-Feb-20 03:30N 38°31' W 008°53'0 0.0
2017-Feb-20 02:30N 38°31' W 008°53'0 0.0
2017-Feb-20 01:30N 38°31' W 008°54'0 0.0
2017-Feb-20 00:24N 38°31' W 008°54'0 0.0
2017-Feb-19 23:30N 38°31' W 008°54'0 0.0
2017-Feb-19 22:33N 38°31' W 008°53'0 0.0
2017-Feb-19 21:33N 38°31' W 008°53'1 0.6
2017-Feb-19 20:33N 38°31' W 008°54'8 8.6
2017-Feb-19 19:33N 38°24' W 009°01'10 9.5
2017-Feb-19 18:33N 38°15' W 009°05'9 9.4
2017-Feb-19 17:33N 38°06' W 009°07'9 9.0
2017-Feb-19 16:33N 37°57' W 009°10'9 9.0
2017-Feb-19 15:33N 37°48' W 009°13'9 8.8
2017-Feb-19 14:33N 37°40' W 009°15'  

Dump ship's entire track history